createdAt,value
2023-01-15T00:02:12.939Z,74.59
2023-01-15T00:04:41.453Z,74.13
2023-01-15T00:07:11.192Z,73.17
2023-01-15T00:09:39.508Z,73.33
2023-01-15T00:12:07.934Z,73.67
2023-01-15T00:14:36.323Z,73.82
2023-01-15T00:17:04.710Z,73.60
2023-01-15T00:19:33.165Z,71.25
2023-01-15T00:22:01.453Z,69.14
2023-01-15T00:24:48.710Z,69.00
2023-01-15T00:27:34.512Z,68.18
2023-01-15T00:30:02.941Z,67.92
2023-01-15T00:32:31.447Z,68.29
2023-01-15T00:35:00.520Z,68.50
2023-01-15T00:37:29.438Z,69.38
2023-01-15T00:39:59.267Z,70.17
2023-01-15T00:42:27.663Z,70.20
2023-01-15T00:44:56.266Z,69.95
2023-01-15T00:47:24.783Z,69.94
2023-01-15T00:49:53.425Z,70.26
2023-01-15T00:52:21.710Z,70.84
2023-01-15T00:54:50.056Z,70.72
2023-01-15T00:57:19.746Z,70.65
2023-01-15T00:59:48.497Z,70.88
2023-01-15T01:02:17.136Z,70.85
2023-01-15T01:04:45.677Z,71.07
2023-01-15T01:07:14.419Z,70.83
2023-01-15T01:09:43.510Z,71.48
2023-01-15T01:12:12.161Z,70.98
2023-01-15T01:14:41.878Z,71.10
2023-01-15T01:17:10.668Z,70.93
2023-01-15T01:19:39.019Z,70.38
2023-01-15T01:22:09.243Z,70.59
2023-01-15T01:24:37.678Z,69.85
2023-01-15T01:27:08.097Z,69.45
2023-01-15T01:29:36.491Z,69.62
2023-01-15T01:32:07.013Z,69.33
2023-01-15T01:34:36.322Z,68.80
2023-01-15T01:37:04.763Z,68.26
2023-01-15T01:39:34.518Z,69.31
2023-01-15T01:42:02.990Z,70.41
2023-01-15T01:45:04.374Z,69.08
2023-01-15T01:47:35.799Z,69.37
2023-01-15T01:50:11.057Z,69.23
2023-01-15T01:52:46.515Z,70.04
2023-01-15T01:55:18.628Z,69.13
2023-01-15T01:57:49.990Z,68.77
2023-01-15T02:00:20.746Z,69.27
2023-01-15T02:02:51.871Z,69.03
2023-01-15T02:05:29.465Z,69.75
2023-01-15T02:07:58.069Z,70.20
2023-01-15T02:10:26.706Z,70.60
2023-01-15T02:13:01.869Z,70.17
2023-01-15T02:15:37.624Z,69.54
2023-01-15T02:18:17.578Z,69.67
2023-01-15T02:20:52.418Z,69.82
2023-01-15T02:23:34.975Z,70.01
2023-01-15T02:26:27.539Z,70.05
2023-01-15T02:29:00.659Z,70.48
2023-01-15T02:31:35.944Z,70.35
2023-01-15T02:34:11.756Z,69.77
2023-01-15T02:36:54.463Z,69.40
2023-01-15T02:39:29.808Z,68.99
2023-01-15T02:42:03.417Z,68.05
2023-01-15T02:44:43.000Z,67.27
2023-01-15T02:47:15.040Z,66.30
2023-01-15T02:49:46.673Z,66.11
2023-01-15T02:52:24.404Z,66.51
2023-01-15T02:54:59.876Z,66.84
2023-01-15T02:57:33.573Z,67.07
2023-01-15T03:00:08.456Z,67.07
2023-01-15T03:02:42.709Z,67.85
2023-01-15T03:05:19.818Z,69.06
2023-01-15T03:07:53.186Z,69.93
2023-01-15T03:10:31.760Z,70.12
2023-01-15T03:13:03.820Z,70.78
2023-01-15T03:16:10.127Z,69.23
2023-01-15T03:18:46.923Z,68.95
2023-01-15T03:21:22.768Z,68.55
2023-01-15T03:23:56.187Z,67.77
2023-01-15T03:26:28.392Z,66.21
2023-01-15T03:29:00.669Z,65.91
2023-01-15T03:31:31.629Z,66.22
2023-01-15T03:34:00.496Z,67.30
2023-01-15T03:36:30.133Z,68.85
2023-01-15T03:39:02.902Z,69.76
2023-01-15T03:42:07.835Z,70.09
2023-01-15T03:44:42.371Z,70.51
2023-01-15T03:47:29.869Z,70.09
2023-01-15T03:50:06.240Z,70.99
2023-01-15T03:52:47.022Z,70.42
2023-01-15T03:55:21.988Z,70.62
2023-01-15T03:58:14.822Z,70.62
2023-01-15T04:00:53.061Z,70.50
2023-01-15T04:03:28.381Z,69.32
2023-01-15T04:06:01.238Z,69.19
2023-01-15T04:08:35.871Z,69.52
2023-01-15T04:11:04.807Z,69.35
2023-01-15T04:13:38.678Z,69.54
2023-01-15T04:16:09.648Z,70.19
2023-01-15T04:18:39.414Z,70.59
2023-01-15T04:21:07.849Z,70.51
2023-01-15T04:23:36.503Z,70.44
2023-01-15T04:26:05.039Z,70.66
2023-01-15T04:28:33.528Z,70.92
2023-01-15T04:31:02.128Z,70.66
2023-01-15T04:33:30.495Z,70.60
2023-01-15T04:36:02.367Z,69.17
2023-01-15T04:38:30.978Z,68.51
2023-01-15T04:41:20.591Z,68.92
2023-01-15T04:44:06.759Z,68.88
2023-01-15T04:46:36.895Z,67.13
2023-01-15T04:49:06.234Z,65.19
2023-01-15T04:51:36.603Z,64.86
2023-01-15T04:54:06.663Z,63.80
2023-01-15T04:56:39.137Z,63.76
2023-01-15T04:59:08.004Z,62.90
2023-01-15T05:01:37.009Z,62.39
2023-01-15T05:04:06.533Z,62.11
2023-01-15T05:06:36.544Z,62.16
2023-01-15T05:09:06.683Z,62.01
2023-01-15T05:11:38.100Z,62.30
2023-01-15T05:14:07.548Z,62.85
2023-01-15T05:16:38.257Z,62.73
2023-01-15T05:19:08.225Z,61.39
2023-01-15T05:21:42.555Z,61.19
2023-01-15T05:24:15.927Z,62.23
2023-01-15T05:26:45.303Z,62.52
2023-01-15T05:29:14.089Z,63.17
2023-01-15T05:31:45.095Z,62.98
2023-01-15T05:34:14.805Z,62.77
2023-01-15T05:36:44.639Z,61.50
2023-01-15T05:39:13.075Z,61.46
2023-01-15T05:41:50.466Z,62.28
2023-01-15T05:44:22.562Z,62.31
2023-01-15T05:46:52.438Z,62.07
2023-01-15T05:49:23.954Z,62.24
2023-01-15T05:51:55.728Z,60.93
2023-01-15T05:54:27.644Z,60.40
2023-01-15T05:56:56.814Z,61.46
2023-01-15T05:59:28.065Z,61.77
2023-01-15T06:01:57.469Z,62.92
2023-01-15T06:04:26.567Z,63.20
2023-01-15T06:06:58.547Z,63.03
2023-01-15T06:09:28.296Z,62.67
2023-01-15T06:11:57.114Z,62.18
2023-01-15T06:14:26.002Z,62.69
2023-01-15T06:16:54.425Z,62.08
2023-01-15T06:19:22.825Z,62.74
2023-01-15T06:21:51.480Z,63.39
2023-01-15T06:24:21.168Z,63.96
2023-01-15T06:26:49.586Z,64.57
2023-01-15T06:29:20.422Z,65.18
2023-01-15T06:31:49.731Z,64.58
2023-01-15T06:34:18.388Z,64.87
2023-01-15T06:36:46.863Z,64.51
2023-01-15T06:39:15.337Z,64.19
2023-01-15T06:42:02.672Z,64.88
2023-01-15T06:44:48.721Z,65.11
2023-01-15T06:47:23.209Z,64.96
2023-01-15T06:49:54.955Z,65.16
2023-01-15T06:52:24.406Z,65.57
2023-01-15T06:54:53.419Z,64.99
2023-01-15T06:57:23.371Z,65.13
2023-01-15T06:59:52.129Z,65.28
2023-01-15T07:02:21.711Z,65.48
2023-01-15T07:04:50.615Z,65.94
2023-01-15T07:07:20.878Z,66.11
2023-01-15T07:09:49.404Z,66.77
2023-01-15T07:12:18.404Z,67.01
2023-01-15T07:14:48.289Z,67.07
2023-01-15T07:17:16.881Z,66.61
2023-01-15T07:19:45.724Z,66.87
2023-01-15T07:22:14.320Z,67.57
2023-01-15T07:24:42.695Z,67.58
2023-01-15T07:27:10.999Z,67.32
2023-01-15T07:29:39.325Z,66.62
2023-01-15T07:32:09.357Z,67.44
2023-01-15T07:34:37.820Z,67.54
2023-01-15T07:37:06.297Z,68.43
2023-01-15T07:39:34.752Z,68.40
2023-01-15T07:42:21.172Z,68.76
2023-01-15T07:45:07.121Z,68.96
2023-01-15T07:47:54.621Z,68.40
2023-01-15T07:50:25.153Z,67.81
2023-01-15T07:52:53.944Z,68.08
2023-01-15T07:55:23.125Z,67.99
2023-01-15T07:57:52.389Z,67.66
2023-01-15T08:00:24.421Z,67.78
2023-01-15T08:02:54.217Z,68.14
2023-01-15T08:05:22.578Z,67.87
2023-01-15T08:07:51.007Z,67.75
2023-01-15T08:10:20.825Z,67.54
2023-01-15T08:13:18.771Z,67.57
2023-01-15T08:15:47.321Z,67.33
2023-01-15T08:18:19.035Z,67.38
2023-01-15T08:20:47.489Z,66.92
2023-01-15T08:23:15.941Z,66.74
2023-01-15T08:25:46.570Z,67.54
2023-01-15T08:28:15.703Z,67.86
2023-01-15T08:30:44.033Z,68.14
2023-01-15T08:33:12.483Z,67.76
2023-01-15T08:35:42.254Z,68.13
2023-01-15T08:38:10.737Z,68.22
2023-01-15T08:40:58.993Z,67.64
2023-01-15T08:43:28.230Z,67.88
2023-01-15T08:45:59.089Z,67.73
2023-01-15T08:48:28.634Z,67.84
2023-01-15T08:50:58.987Z,67.94
2023-01-15T08:53:29.655Z,68.28
2023-01-15T08:55:58.017Z,68.11
2023-01-15T08:58:29.188Z,67.96
2023-01-15T09:00:57.978Z,69.02
2023-01-15T09:03:28.916Z,69.43
2023-01-15T09:06:01.806Z,69.72
2023-01-15T09:08:31.202Z,69.41
2023-01-15T09:11:00.136Z,69.32
2023-01-15T09:13:30.133Z,69.33
2023-01-15T09:16:01.006Z,69.91
2023-01-15T09:18:29.500Z,70.16
2023-01-15T09:20:57.909Z,70.27
2023-01-15T09:23:28.404Z,70.15
2023-01-15T09:25:59.442Z,69.27
2023-01-15T09:28:28.867Z,69.47
2023-01-15T09:30:57.214Z,69.34
2023-01-15T09:33:25.935Z,69.42
2023-01-15T09:35:55.274Z,70.02
2023-01-15T09:38:23.672Z,70.32
2023-01-15T09:40:57.378Z,70.22
2023-01-15T09:43:49.982Z,69.61
2023-01-15T09:46:24.438Z,69.86
2023-01-15T09:49:04.522Z,69.83
2023-01-15T09:51:44.909Z,69.71
2023-01-15T09:54:39.855Z,69.35
2023-01-15T09:57:13.564Z,69.25
2023-01-15T09:59:44.620Z,69.13
2023-01-15T10:02:24.415Z,69.12
2023-01-15T10:04:57.536Z,67.92
2023-01-15T10:07:34.386Z,67.67
2023-01-15T10:10:11.651Z,67.22
2023-01-15T10:12:44.675Z,67.12
2023-01-15T10:15:24.033Z,66.77
2023-01-15T10:17:55.410Z,65.35
2023-01-15T10:21:03.206Z,66.80
2023-01-15T10:23:39.206Z,67.32
2023-01-15T10:26:26.454Z,67.67
2023-01-15T10:29:03.475Z,68.27
2023-01-15T10:31:54.302Z,68.12
2023-01-15T10:34:57.794Z,68.14
2023-01-15T10:37:32.479Z,68.04
2023-01-15T10:40:24.583Z,68.17
2023-01-15T10:43:04.194Z,67.80
2023-01-15T10:45:39.236Z,68.84
2023-01-15T10:48:15.379Z,69.08
2023-01-15T10:50:44.456Z,68.97
2023-01-15T10:53:20.623Z,69.49
2023-01-15T10:55:54.285Z,69.17
2023-01-15T10:58:31.344Z,68.20
2023-01-15T11:01:06.766Z,67.14
2023-01-15T11:03:39.843Z,66.18
2023-01-15T11:06:14.361Z,65.19
2023-01-15T11:12:03.596Z,65.27
2023-01-15T11:14:55.664Z,65.46
2023-01-15T11:17:47.209Z,65.41
2023-01-15T11:20:29.222Z,64.46
2023-01-15T11:22:58.592Z,65.39
2023-01-15T11:25:30.000Z,65.56
2023-01-15T11:28:00.307Z,65.90
2023-01-15T11:30:32.888Z,65.81
2023-01-15T11:33:04.941Z,66.83
2023-01-15T11:35:35.089Z,67.06
2023-01-15T11:38:06.327Z,67.64
2023-01-15T11:40:35.276Z,68.30
2023-01-15T11:43:21.237Z,68.36
2023-01-15T11:46:08.539Z,68.06
2023-01-15T11:49:03.580Z,68.21
2023-01-15T11:51:39.317Z,68.07
2023-01-15T11:54:12.233Z,67.38
2023-01-15T11:56:44.683Z,67.08
2023-01-15T11:59:17.554Z,67.72
2023-01-15T12:02:00.041Z,68.31
2023-01-15T12:04:38.349Z,68.75
2023-01-15T12:07:13.948Z,67.93
2023-01-15T12:10:04.727Z,68.28
2023-01-15T12:12:41.129Z,68.46
2023-01-15T12:15:31.850Z,68.07
2023-01-15T12:18:10.689Z,67.47
2023-01-15T12:20:59.552Z,67.46
2023-01-15T12:23:59.874Z,67.75
2023-01-15T12:26:30.650Z,67.87
2023-01-15T12:29:04.418Z,68.25
2023-01-15T12:31:39.139Z,67.25
2023-01-15T12:34:19.226Z,67.59
2023-01-15T12:36:53.556Z,68.13
2023-01-15T12:39:27.625Z,68.55
2023-01-15T12:42:17.812Z,68.01
2023-01-15T12:45:04.680Z,66.86
2023-01-15T12:47:41.452Z,66.49
2023-01-15T12:50:31.055Z,65.72
2023-01-15T12:53:08.512Z,65.02
2023-01-15T12:55:45.008Z,64.64
2023-01-15T12:58:28.468Z,64.72
2023-01-15T13:01:11.789Z,64.88
2023-01-15T13:03:52.939Z,64.86
2023-01-15T13:06:27.023Z,64.91
2023-01-15T13:09:04.085Z,64.96
2023-01-15T13:11:33.153Z,64.57
2023-01-15T13:14:01.628Z,65.57
2023-01-15T13:16:43.700Z,65.85
2023-01-15T13:19:37.368Z,65.76
2023-01-15T13:22:12.080Z,66.47
2023-01-15T13:25:28.743Z,65.99
2023-01-15T13:28:25.962Z,65.95
2023-01-15T13:31:10.956Z,65.94
2023-01-15T13:33:44.356Z,67.51
2023-01-15T13:36:17.959Z,68.92
2023-01-15T13:38:50.736Z,69.10
2023-01-15T13:41:39.209Z,68.53
2023-01-15T13:44:07.965Z,68.06
2023-01-15T13:46:36.426Z,67.60
2023-01-15T13:49:05.685Z,68.02
2023-01-15T13:51:37.842Z,67.58
2023-01-15T13:54:13.478Z,67.91
2023-01-15T13:56:44.693Z,67.44
2023-01-15T13:59:44.172Z,67.38
2023-01-15T14:02:30.339Z,65.87
2023-01-15T14:04:59.873Z,66.19
2023-01-15T14:07:37.231Z,66.02
2023-01-15T14:10:11.743Z,65.79
2023-01-15T14:12:52.431Z,66.01
2023-01-15T14:15:41.669Z,65.20
2023-01-15T14:18:44.442Z,65.81
2023-01-15T14:21:29.655Z,66.12
2023-01-15T14:24:22.678Z,68.55
2023-01-15T14:26:58.531Z,69.36
2023-01-15T14:30:11.961Z,69.80
2023-01-15T14:32:59.298Z,68.70
2023-01-15T14:35:29.073Z,68.73
2023-01-15T14:38:02.006Z,67.64
2023-01-15T14:40:34.479Z,67.79
2023-01-15T14:43:10.434Z,67.84
2023-01-15T14:45:42.579Z,68.03
2023-01-15T14:48:21.461Z,67.35
2023-01-15T14:50:50.218Z,67.70
2023-01-15T14:53:39.523Z,67.62
2023-01-15T14:56:19.539Z,68.20
2023-01-15T14:58:54.571Z,68.72
2023-01-15T15:01:45.889Z,68.92
2023-01-15T15:04:29.221Z,69.16
2023-01-15T15:07:00.562Z,68.74
2023-01-15T15:09:35.945Z,68.71
2023-01-15T15:12:24.075Z,68.57
2023-01-15T15:15:02.018Z,69.53
2023-01-15T15:17:44.765Z,70.19
2023-01-15T15:20:29.251Z,70.29
2023-01-15T15:23:05.815Z,70.14
2023-01-15T15:25:39.510Z,69.88
2023-01-15T15:28:12.334Z,70.09
2023-01-15T15:30:46.384Z,70.21
2023-01-15T15:33:20.346Z,70.52
2023-01-15T15:35:52.345Z,70.81
2023-01-15T15:38:23.917Z,70.60
2023-01-15T15:40:55.598Z,70.42
2023-01-15T15:43:48.300Z,70.26
2023-01-15T15:46:52.234Z,70.08
2023-01-15T15:49:22.417Z,69.96
2023-01-15T15:51:52.081Z,70.36
2023-01-15T15:54:22.797Z,70.26
2023-01-15T15:56:54.418Z,69.92
2023-01-15T15:59:37.241Z,70.04
2023-01-15T16:02:21.274Z,73.21
2023-01-15T16:04:53.894Z,75.96
2023-01-15T16:07:27.942Z,77.80
2023-01-15T16:10:02.852Z,79.03
2023-01-15T16:12:35.739Z,80.38
2023-01-15T16:15:06.144Z,81.33
2023-01-15T16:17:35.655Z,82.11
2023-01-15T16:20:06.733Z,84.18
2023-01-15T16:22:35.912Z,85.98
2023-01-15T16:25:05.407Z,86.13
2023-01-15T16:27:36.848Z,86.39
2023-01-15T16:30:06.980Z,87.28
2023-01-15T16:32:37.016Z,87.33
2023-01-15T16:35:17.292Z,87.75
2023-01-15T16:37:50.373Z,87.86
2023-01-15T16:40:27.603Z,88.30
2023-01-15T16:43:06.691Z,89.27
2023-01-15T16:45:37.929Z,89.36
2023-01-15T16:48:29.854Z,90.19
2023-01-15T16:50:59.667Z,90.54
2023-01-15T16:53:39.646Z,90.93
2023-01-15T16:56:28.291Z,91.06
2023-01-15T16:58:56.762Z,90.70
2023-01-15T17:01:38.988Z,90.96
2023-01-15T17:04:21.648Z,90.74
2023-01-15T17:06:59.801Z,90.45
2023-01-15T17:09:29.129Z,90.17
2023-01-15T17:11:58.615Z,90.17
2023-01-15T17:14:29.714Z,90.64
2023-01-15T17:17:18.602Z,91.12
2023-01-15T17:19:47.078Z,90.74
2023-01-15T17:22:24.134Z,91.38
2023-01-15T17:24:56.865Z,91.84
2023-01-15T17:27:26.262Z,92.23
2023-01-15T17:29:55.282Z,91.78
2023-01-15T17:32:33.258Z,91.35
2023-01-15T17:35:01.672Z,91.76
2023-01-15T17:37:32.401Z,91.18
2023-01-15T17:40:00.964Z,90.68
2023-01-15T17:42:29.417Z,90.44
2023-01-15T17:44:57.861Z,90.16
2023-01-15T17:47:26.226Z,90.61
2023-01-15T17:49:54.623Z,90.31
2023-01-15T17:52:23.363Z,90.39
2023-01-15T17:55:10.808Z,90.08
2023-01-15T17:57:56.701Z,89.58
2023-01-15T18:00:42.867Z,89.74
2023-01-15T18:03:35.915Z,90.01
2023-01-15T18:06:05.264Z,89.78
2023-01-15T18:08:33.933Z,89.45
2023-01-15T18:11:04.045Z,89.54
2023-01-15T18:13:32.472Z,89.62
2023-01-15T18:16:00.895Z,89.51
2023-01-15T18:18:29.691Z,89.45
2023-01-15T18:20:57.975Z,89.43
2023-01-15T18:23:26.518Z,89.50
2023-01-15T18:25:55.202Z,89.77
2023-01-15T18:28:24.930Z,89.83
2023-01-15T18:30:53.237Z,89.29
2023-01-15T18:33:21.705Z,89.47
2023-01-15T18:35:50.073Z,89.08
2023-01-15T18:38:18.427Z,89.11
2023-01-15T18:40:46.985Z,89.19
2023-01-15T18:43:33.050Z,89.50
2023-01-15T18:46:29.016Z,89.50
2023-01-15T18:48:58.819Z,89.33
2023-01-15T18:51:27.314Z,89.68
2023-01-15T18:53:55.810Z,89.55
2023-01-15T18:56:38.162Z,89.24
2023-01-15T18:59:09.026Z,89.13
2023-01-15T19:01:39.455Z,88.99
2023-01-15T19:04:10.848Z,89.06
2023-01-15T19:06:40.937Z,88.91
2023-01-15T19:09:13.746Z,88.65
2023-01-15T19:11:44.672Z,88.43
2023-01-15T19:14:30.591Z,88.38
2023-01-15T19:17:17.563Z,88.62
2023-01-15T19:19:46.275Z,88.61
2023-01-15T19:22:32.228Z,88.54
2023-01-15T19:25:00.968Z,88.25
2023-01-15T19:27:29.464Z,88.42
2023-01-15T19:29:58.231Z,88.04
2023-01-15T19:32:28.113Z,87.97
2023-01-15T19:34:56.631Z,87.87
2023-01-15T19:37:27.121Z,88.30
2023-01-15T19:39:56.438Z,88.37
2023-01-15T19:42:42.517Z,88.49
2023-01-15T19:45:30.279Z,88.99
2023-01-15T19:48:17.896Z,88.76
2023-01-15T19:50:47.914Z,89.24
2023-01-15T19:53:16.503Z,88.99
2023-01-15T19:55:54.196Z,88.62
2023-01-15T19:58:22.760Z,88.91
2023-01-15T20:00:53.185Z,88.57
2023-01-15T20:03:23.448Z,88.74
2023-01-15T20:05:52.046Z,88.68
2023-01-15T20:08:20.942Z,88.46
2023-01-15T20:10:51.891Z,88.46
2023-01-15T20:13:41.315Z,88.86
2023-01-15T20:16:13.000Z,88.51
2023-01-15T20:18:42.894Z,88.80
2023-01-15T20:21:14.682Z,88.86
2023-01-15T20:23:44.122Z,88.81
2023-01-15T20:26:15.095Z,88.83
2023-01-15T20:28:47.057Z,88.83
2023-01-15T20:31:17.492Z,88.95
2023-01-15T20:33:48.371Z,88.61
2023-01-15T20:36:17.090Z,88.41
2023-01-15T20:38:46.289Z,88.35
2023-01-15T20:41:32.169Z,88.43
2023-01-15T20:44:18.169Z,88.56
2023-01-15T20:46:46.662Z,89.00
2023-01-15T20:49:24.937Z,88.95
2023-01-15T20:51:53.895Z,89.55
2023-01-15T20:54:26.463Z,89.81
2023-01-15T20:56:54.979Z,89.42
2023-01-15T20:59:23.503Z,89.77
2023-01-15T21:01:54.775Z,90.43
2023-01-15T21:04:25.044Z,90.91
2023-01-15T21:06:53.768Z,91.18
2023-01-15T21:09:25.318Z,91.56
2023-01-15T21:11:53.908Z,92.11
2023-01-15T21:14:24.268Z,91.88
2023-01-15T21:16:53.678Z,91.93
2023-01-15T21:19:22.269Z,91.69
2023-01-15T21:21:52.252Z,91.31
2023-01-15T21:24:20.924Z,91.26
2023-01-15T21:26:49.434Z,91.16
2023-01-15T21:29:18.322Z,90.51
2023-01-15T21:31:47.417Z,90.73
2023-01-15T21:34:16.021Z,90.46
2023-01-15T21:36:44.584Z,90.50
2023-01-15T21:39:17.130Z,90.49
2023-01-15T21:42:03.428Z,90.22
2023-01-15T21:44:32.794Z,90.28
2023-01-15T21:47:03.676Z,89.99
2023-01-15T21:49:33.466Z,89.60
2023-01-15T21:52:03.520Z,89.31
2023-01-15T21:54:34.048Z,89.28
2023-01-15T21:57:04.147Z,89.17
2023-01-15T21:59:32.837Z,89.04
2023-01-15T22:02:02.438Z,89.14
2023-01-15T22:04:35.983Z,88.79
2023-01-15T22:07:04.873Z,89.16
2023-01-15T22:09:36.193Z,89.43
2023-01-15T22:12:05.395Z,89.83
2023-01-15T22:14:35.022Z,89.78
2023-01-15T22:17:05.161Z,90.06
2023-01-15T22:19:35.128Z,90.35
2023-01-15T22:22:07.611Z,90.28
2023-01-15T22:24:39.488Z,90.10
2023-01-15T22:27:10.117Z,90.50
2023-01-15T22:29:40.085Z,90.17
2023-01-15T22:32:11.093Z,90.13
2023-01-15T22:34:40.244Z,90.16
2023-01-15T22:37:08.830Z,90.20
2023-01-15T22:39:38.665Z,90.14
2023-01-15T22:42:24.501Z,90.32
2023-01-15T22:44:53.120Z,90.40
2023-01-15T22:47:21.826Z,90.36
2023-01-15T22:49:50.897Z,90.40
2023-01-15T22:52:20.815Z,91.22
2023-01-15T22:54:50.603Z,90.97
2023-01-15T22:57:19.119Z,91.11
2023-01-15T22:59:47.795Z,91.08
2023-01-15T23:02:16.937Z,90.99
2023-01-15T23:04:45.614Z,90.90
2023-01-15T23:07:14.009Z,91.08
2023-01-15T23:09:42.501Z,90.53
2023-01-15T23:12:12.456Z,90.67
2023-01-15T23:14:41.128Z,90.69
2023-01-15T23:17:09.626Z,90.14
2023-01-15T23:19:38.414Z,90.22
2023-01-15T23:22:06.947Z,90.34
2023-01-15T23:24:35.636Z,90.69
2023-01-15T23:27:04.092Z,90.75
2023-01-15T23:29:34.392Z,90.09
2023-01-15T23:32:02.969Z,90.47
2023-01-15T23:34:31.275Z,90.91
2023-01-15T23:36:59.661Z,90.89
2023-01-15T23:39:28.014Z,91.11
2023-01-15T23:42:14.086Z,91.43
2023-01-15T23:45:01.200Z,91.54
2023-01-15T23:47:29.597Z,91.81
2023-01-15T23:49:57.978Z,91.88
2023-01-15T23:52:26.386Z,92.14
2023-01-15T23:54:54.754Z,92.36
2023-01-15T23:57:23.241Z,92.54
2023-01-15T23:59:53.133Z,92.41
